sensor_id;sensor_type;location;lat;lon;timestamp;temperature;humidity
41533;DHT22;27262;-35.248;149.138;2023-05-13T00:00:41;18.10;62.00
41533;DHT22;27262;-35.248;149.138;2023-05-13T00:03:12;18.20;62.10
41533;DHT22;27262;-35.248;149.138;2023-05-13T00:05:42;18.20;62.00
41533;DHT22;27262;-35.248;149.138;2023-05-13T00:08:14;18.20;62.10
41533;DHT22;27262;-35.248;149.138;2023-05-13T00:10:45;18.20;61.90
41533;DHT22;27262;-35.248;149.138;2023-05-13T00:13:15;18.20;61.80
41533;DHT22;27262;-35.248;149.138;2023-05-13T00:15:45;18.30;61.90
41533;DHT22;27262;-35.248;149.138;2023-05-13T00:18:16;18.30;61.80
41533;DHT22;27262;-35.248;149.138;2023-05-13T00:20:46;18.40;61.70
41533;DHT22;27262;-35.248;149.138;2023-05-13T00:23:16;18.40;61.70
41533;DHT22;27262;-35.248;149.138;2023-05-13T00:25:47;18.40;61.70
41533;DHT22;27262;-35.248;149.138;2023-05-13T00:28:17;18.40;61.70
41533;DHT22;27262;-35.248;149.138;2023-05-13T00:30:49;18.50;61.70
41533;DHT22;27262;-35.248;149.138;2023-05-13T00:33:20;18.50;61.70
41533;DHT22;27262;-35.248;149.138;2023-05-13T00:35:50;18.50;61.70
41533;DHT22;27262;-35.248;149.138;2023-05-13T00:38:24;18.60;61.80
41533;DHT22;27262;-35.248;149.138;2023-05-13T00:40:57;18.60;61.70
41533;DHT22;27262;-35.248;149.138;2023-05-13T00:43:27;18.60;61.70
41533;DHT22;27262;-35.248;149.138;2023-05-13T00:45:58;18.60;61.80
41533;DHT22;27262;-35.248;149.138;2023-05-13T00:48:29;18.60;61.80
41533;DHT22;27262;-35.248;149.138;2023-05-13T00:50:59;18.60;61.80
41533;DHT22;27262;-35.248;149.138;2023-05-13T00:53:32;18.60;61.80
41533;DHT22;27262;-35.248;149.138;2023-05-13T00:56:03;18.70;61.90
41533;DHT22;27262;-35.248;149.138;2023-05-13T00:58:33;18.60;61.80
41533;DHT22;27262;-35.248;149.138;2023-05-13T01:09:55;18.60;62.00
41533;DHT22;27262;-35.248;149.138;2023-05-13T01:12:35;18.60;62.00
41533;DHT22;27262;-35.248;149.138;2023-05-13T01:15:23;18.60;62.10
41533;DHT22;27262;-35.248;149.138;2023-05-13T01:18:04;18.60;62.10
41533;DHT22;27262;-35.248;149.138;2023-05-13T01:20:39;18.60;62.10
41533;DHT22;27262;-35.248;149.138;2023-05-13T01:23:11;18.60;62.20
41533;DHT22;27262;-35.248;149.138;2023-05-13T01:25:41;18.60;62.10
41533;DHT22;27262;-35.248;149.138;2023-05-13T01:28:13;18.50;62.10
41533;DHT22;27262;-35.248;149.138;2023-05-13T01:30:45;18.60;62.20
41533;DHT22;27262;-35.248;149.138;2023-05-13T01:33:17;18.50;62.10
41533;DHT22;27262;-35.248;149.138;2023-05-13T01:35:47;18.60;62.20
41533;DHT22;27262;-35.248;149.138;2023-05-13T01:38:22;18.60;62.20
41533;DHT22;27262;-35.248;149.138;2023-05-13T01:40:58;18.60;62.20
41533;DHT22;27262;-35.248;149.138;2023-05-13T01:43:29;18.60;62.30
41533;DHT22;27262;-35.248;149.138;2023-05-13T01:46:00;18.60;62.30
41533;DHT22;27262;-35.248;149.138;2023-05-13T01:48:31;18.50;62.20
41533;DHT22;27262;-35.248;149.138;2023-05-13T01:51:01;18.50;62.30
41533;DHT22;27262;-35.248;149.138;2023-05-13T01:53:31;18.60;62.40
41533;DHT22;27262;-35.248;149.138;2023-05-13T01:56:02;18.50;62.30
41533;DHT22;27262;-35.248;149.138;2023-05-13T01:58:32;18.60;62.40
41533;DHT22;27262;-35.248;149.138;2023-05-13T02:01:02;18.60;62.40
41533;DHT22;27262;-35.248;149.138;2023-05-13T02:03:34;18.50;62.40
41533;DHT22;27262;-35.248;149.138;2023-05-13T02:06:05;18.60;62.50
41533;DHT22;27262;-35.248;149.138;2023-05-13T02:08:35;18.60;63.20
41533;DHT22;27262;-35.248;149.138;2023-05-13T02:11:05;18.50;62.40
41533;DHT22;27262;-35.248;149.138;2023-05-13T02:13:35;18.50;62.40
41533;DHT22;27262;-35.248;149.138;2023-05-13T02:16:06;18.50;62.50
41533;DHT22;27262;-35.248;149.138;2023-05-13T02:18:36;18.50;62.40
41533;DHT22;27262;-35.248;149.138;2023-05-13T02:21:07;18.60;62.60
41533;DHT22;27262;-35.248;149.138;2023-05-13T02:23:37;18.50;62.50
41533;DHT22;27262;-35.248;149.138;2023-05-13T02:26:07;18.50;62.50
41533;DHT22;27262;-35.248;149.138;2023-05-13T02:28:37;18.50;62.50
41533;DHT22;27262;-35.248;149.138;2023-05-13T02:31:08;18.50;62.50
41533;DHT22;27262;-35.248;149.138;2023-05-13T02:33:38;18.50;62.50
41533;DHT22;27262;-35.248;149.138;2023-05-13T02:36:08;18.50;62.60
41533;DHT22;27262;-35.248;149.138;2023-05-13T02:38:39;18.50;62.50
41533;DHT22;27262;-35.248;149.138;2023-05-13T02:41:10;18.50;62.50
41533;DHT22;27262;-35.248;149.138;2023-05-13T02:43:40;18.50;62.50
41533;DHT22;27262;-35.248;149.138;2023-05-13T02:46:10;18.50;62.60
41533;DHT22;27262;-35.248;149.138;2023-05-13T02:48:41;18.50;62.50
41533;DHT22;27262;-35.248;149.138;2023-05-13T02:51:11;18.50;62.60
41533;DHT22;27262;-35.248;149.138;2023-05-13T02:53:42;18.60;62.80
41533;DHT22;27262;-35.248;149.138;2023-05-13T02:56:12;18.60;62.70
41533;DHT22;27262;-35.248;149.138;2023-05-13T02:58:45;18.60;62.70
41533;DHT22;27262;-35.248;149.138;2023-05-13T03:01:15;18.60;62.60
41533;DHT22;27262;-35.248;149.138;2023-05-13T03:03:46;18.70;62.70
41533;DHT22;27262;-35.248;149.138;2023-05-13T03:06:16;18.70;62.60
41533;DHT22;27262;-35.248;149.138;2023-05-13T03:08:46;18.70;62.60
41533;DHT22;27262;-35.248;149.138;2023-05-13T03:11:17;18.80;62.70
41533;DHT22;27262;-35.248;149.138;2023-05-13T03:13:47;18.80;62.70
41533;DHT22;27262;-35.248;149.138;2023-05-13T03:16:17;18.80;62.70
41533;DHT22;27262;-35.248;149.138;2023-05-13T03:18:48;18.90;62.70
41533;DHT22;27262;-35.248;149.138;2023-05-13T03:21:18;18.90;62.70
41533;DHT22;27262;-35.248;149.138;2023-05-13T03:23:48;18.90;62.70
41533;DHT22;27262;-35.248;149.138;2023-05-13T03:26:19;18.90;62.70
41533;DHT22;27262;-35.248;149.138;2023-05-13T03:28:50;18.90;62.70
41533;DHT22;27262;-35.248;149.138;2023-05-13T03:31:20;19.00;62.70
41533;DHT22;27262;-35.248;149.138;2023-05-13T03:33:51;19.00;62.70
41533;DHT22;27262;-35.248;149.138;2023-05-13T03:36:21;19.10;62.70
41533;DHT22;27262;-35.248;149.138;2023-05-13T03:38:51;19.10;62.70
41533;DHT22;27262;-35.248;149.138;2023-05-13T03:41:22;19.10;62.70
41533;DHT22;27262;-35.248;149.138;2023-05-13T03:43:52;19.10;62.60
41533;DHT22;27262;-35.248;149.138;2023-05-13T03:46:23;19.10;62.60
41533;DHT22;27262;-35.248;149.138;2023-05-13T03:48:57;19.20;62.70
41533;DHT22;27262;-35.248;149.138;2023-05-13T03:51:27;19.20;62.70
41533;DHT22;27262;-35.248;149.138;2023-05-13T03:53:57;19.20;62.70
41533;DHT22;27262;-35.248;149.138;2023-05-13T03:56:28;19.20;62.60
41533;DHT22;27262;-35.248;149.138;2023-05-13T03:58:59;19.20;62.60
41533;DHT22;27262;-35.248;149.138;2023-05-13T04:01:29;19.20;62.60
41533;DHT22;27262;-35.248;149.138;2023-05-13T04:03:59;19.30;62.60
41533;DHT22;27262;-35.248;149.138;2023-05-13T04:06:29;19.30;62.60
41533;DHT22;27262;-35.248;149.138;2023-05-13T04:09:03;19.30;62.60
41533;DHT22;27262;-35.248;149.138;2023-05-13T04:11:37;19.30;62.50
41533;DHT22;27262;-35.248;149.138;2023-05-13T04:14:08;19.40;62.50
41533;DHT22;27262;-35.248;149.138;2023-05-13T04:16:38;19.40;62.50
41533;DHT22;27262;-35.248;149.138;2023-05-13T04:19:09;19.40;62.50
41533;DHT22;27262;-35.248;149.138;2023-05-13T04:21:40;19.40;62.50
41533;DHT22;27262;-35.248;149.138;2023-05-13T04:24:10;19.40;62.60
41533;DHT22;27262;-35.248;149.138;2023-05-13T04:26:40;19.50;62.60
41533;DHT22;27262;-35.248;149.138;2023-05-13T04:29:10;19.50;62.60
41533;DHT22;27262;-35.248;149.138;2023-05-13T04:31:41;19.50;62.60
41533;DHT22;27262;-35.248;149.138;2023-05-13T04:34:11;19.50;62.60
41533;DHT22;27262;-35.248;149.138;2023-05-13T04:36:41;19.50;62.60
41533;DHT22;27262;-35.248;149.138;2023-05-13T04:39:12;19.60;62.60
41533;DHT22;27262;-35.248;149.138;2023-05-13T04:41:42;19.50;62.60
41533;DHT22;27262;-35.248;149.138;2023-05-13T04:44:12;19.60;62.60
41533;DHT22;27262;-35.248;149.138;2023-05-13T04:46:42;19.60;62.60
41533;DHT22;27262;-35.248;149.138;2023-05-13T04:49:13;19.60;62.60
41533;DHT22;27262;-35.248;149.138;2023-05-13T04:51:44;19.60;62.70
41533;DHT22;27262;-35.248;149.138;2023-05-13T04:54:15;19.60;62.60
41533;DHT22;27262;-35.248;149.138;2023-05-13T04:56:45;19.70;62.60
41533;DHT22;27262;-35.248;149.138;2023-05-13T04:59:15;19.60;62.60
41533;DHT22;27262;-35.248;149.138;2023-05-13T05:01:46;19.60;62.50
41533;DHT22;27262;-35.248;149.138;2023-05-13T05:04:16;19.70;62.50
41533;DHT22;27262;-35.248;149.138;2023-05-13T05:06:47;19.70;62.50
41533;DHT22;27262;-35.248;149.138;2023-05-13T05:09:17;19.70;62.50
41533;DHT22;27262;-35.248;149.138;2023-05-13T05:11:48;19.70;62.40
41533;DHT22;27262;-35.248;149.138;2023-05-13T05:14:19;19.70;62.50
41533;DHT22;27262;-35.248;149.138;2023-05-13T05:16:49;19.70;62.40
41533;DHT22;27262;-35.248;149.138;2023-05-13T05:19:19;19.70;62.30
41533;DHT22;27262;-35.248;149.138;2023-05-13T05:21:52;19.80;62.30
41533;DHT22;27262;-35.248;149.138;2023-05-13T05:24:22;19.80;62.30
41533;DHT22;27262;-35.248;149.138;2023-05-13T05:26:53;19.80;62.30
41533;DHT22;27262;-35.248;149.138;2023-05-13T05:29:23;19.80;62.20
41533;DHT22;27262;-35.248;149.138;2023-05-13T05:31:54;19.80;62.20
41533;DHT22;27262;-35.248;149.138;2023-05-13T05:34:24;19.80;62.20
41533;DHT22;27262;-35.248;149.138;2023-05-13T05:36:55;19.80;62.20
41533;DHT22;27262;-35.248;149.138;2023-05-13T05:39:25;19.90;62.20
41533;DHT22;27262;-35.248;149.138;2023-05-13T05:41:55;19.80;62.20
41533;DHT22;27262;-35.248;149.138;2023-05-13T05:44:26;19.90;62.20
41533;DHT22;27262;-35.248;149.138;2023-05-13T05:46:56;19.90;62.20
41533;DHT22;27262;-35.248;149.138;2023-05-13T05:49:26;19.90;62.20
41533;DHT22;27262;-35.248;149.138;2023-05-13T05:51:56;19.90;62.20
41533;DHT22;27262;-35.248;149.138;2023-05-13T05:54:27;19.90;62.30
41533;DHT22;27262;-35.248;149.138;2023-05-13T05:56:57;19.90;62.20
41533;DHT22;27262;-35.248;149.138;2023-05-13T05:59:28;19.90;62.20
41533;DHT22;27262;-35.248;149.138;2023-05-13T06:01:58;19.90;62.30
41533;DHT22;27262;-35.248;149.138;2023-05-13T06:04:28;19.90;62.20
41533;DHT22;27262;-35.248;149.138;2023-05-13T06:06:59;19.90;62.20
41533;DHT22;27262;-35.248;149.138;2023-05-13T06:09:30;19.90;62.30
41533;DHT22;27262;-35.248;149.138;2023-05-13T06:12:01;19.90;62.30
41533;DHT22;27262;-35.248;149.138;2023-05-13T06:14:31;20.00;62.50
41533;DHT22;27262;-35.248;149.138;2023-05-13T06:17:02;20.00;62.50
41533;DHT22;27262;-35.248;149.138;2023-05-13T06:19:32;20.00;62.50
41533;DHT22;27262;-35.248;149.138;2023-05-13T06:22:02;20.00;62.50
41533;DHT22;27262;-35.248;149.138;2023-05-13T06:24:33;20.00;62.50
41533;DHT22;27262;-35.248;149.138;2023-05-13T06:27:04;20.00;62.50
41533;DHT22;27262;-35.248;149.138;2023-05-13T06:29:34;20.00;62.60
41533;DHT22;27262;-35.248;149.138;2023-05-13T06:32:05;20.00;62.60
41533;DHT22;27262;-35.248;149.138;2023-05-13T06:34:36;20.00;62.60
41533;DHT22;27262;-35.248;149.138;2023-05-13T06:37:09;20.00;62.60
41533;DHT22;27262;-35.248;149.138;2023-05-13T06:39:39;20.00;62.60
41533;DHT22;27262;-35.248;149.138;2023-05-13T06:42:10;20.10;62.70
41533;DHT22;27262;-35.248;149.138;2023-05-13T06:44:41;20.10;62.70
41533;DHT22;27262;-35.248;149.138;2023-05-13T06:47:12;20.10;62.70
41533;DHT22;27262;-35.248;149.138;2023-05-13T06:49:44;20.10;62.80
41533;DHT22;27262;-35.248;149.138;2023-05-13T06:52:15;20.10;62.90
41533;DHT22;27262;-35.248;149.138;2023-05-13T06:54:45;20.10;63.00
41533;DHT22;27262;-35.248;149.138;2023-05-13T06:57:15;20.10;63.10
41533;DHT22;27262;-35.248;149.138;2023-05-13T06:59:48;20.20;63.00
41533;DHT22;27262;-35.248;149.138;2023-05-13T07:02:18;20.20;63.10
41533;DHT22;27262;-35.248;149.138;2023-05-13T07:04:49;20.20;63.10
41533;DHT22;27262;-35.248;149.138;2023-05-13T07:07:19;20.20;63.00
41533;DHT22;27262;-35.248;149.138;2023-05-13T07:09:50;20.20;62.90
41533;DHT22;27262;-35.248;149.138;2023-05-13T07:12:21;20.20;62.90
41533;DHT22;27262;-35.248;149.138;2023-05-13T07:14:51;20.30;63.10
41533;DHT22;27262;-35.248;149.138;2023-05-13T07:17:22;20.30;63.10
41533;DHT22;27262;-35.248;149.138;2023-05-13T07:19:52;20.30;63.00
41533;DHT22;27262;-35.248;149.138;2023-05-13T07:22:23;20.30;63.00
41533;DHT22;27262;-35.248;149.138;2023-05-13T07:24:53;20.30;62.90
41533;DHT22;27262;-35.248;149.138;2023-05-13T07:27:24;20.30;62.80
41533;DHT22;27262;-35.248;149.138;2023-05-13T07:29:54;20.30;62.80
41533;DHT22;27262;-35.248;149.138;2023-05-13T07:32:24;20.30;62.80
41533;DHT22;27262;-35.248;149.138;2023-05-13T07:34:55;20.30;62.70
41533;DHT22;27262;-35.248;149.138;2023-05-13T07:37:25;20.40;62.50
41533;DHT22;27262;-35.248;149.138;2023-05-13T07:39:55;20.40;62.60
41533;DHT22;27262;-35.248;149.138;2023-05-13T07:42:26;20.40;62.80
41533;DHT22;27262;-35.248;149.138;2023-05-13T07:44:58;20.40;62.90
41533;DHT22;27262;-35.248;149.138;2023-05-13T07:47:28;20.40;62.90
41533;DHT22;27262;-35.248;149.138;2023-05-13T07:49:59;20.40;63.00
41533;DHT22;27262;-35.248;149.138;2023-05-13T07:52:31;20.50;62.90
41533;DHT22;27262;-35.248;149.138;2023-05-13T07:55:01;20.50;62.70
41533;DHT22;27262;-35.248;149.138;2023-05-13T07:57:32;20.50;62.60
41533;DHT22;27262;-35.248;149.138;2023-05-13T08:00:02;20.50;62.40
41533;DHT22;27262;-35.248;149.138;2023-05-13T08:02:33;20.60;62.30
41533;DHT22;27262;-35.248;149.138;2023-05-13T08:05:04;20.60;61.90
41533;DHT22;27262;-35.248;149.138;2023-05-13T08:07:35;20.90;61.20
41533;DHT22;27262;-35.248;149.138;2023-05-13T08:10:06;20.80;61.10
41533;DHT22;27262;-35.248;149.138;2023-05-13T08:12:36;20.80;61.20
41533;DHT22;27262;-35.248;149.138;2023-05-13T08:15:09;20.70;61.20
41533;DHT22;27262;-35.248;149.138;2023-05-13T08:17:40;20.70;61.20
41533;DHT22;27262;-35.248;149.138;2023-05-13T08:20:11;20.70;61.20
41533;DHT22;27262;-35.248;149.138;2023-05-13T08:22:43;20.70;61.20
41533;DHT22;27262;-35.248;149.138;2023-05-13T08:25:13;20.70;61.20
41533;DHT22;27262;-35.248;149.138;2023-05-13T08:27:44;20.70;61.20
41533;DHT22;27262;-35.248;149.138;2023-05-13T08:30:15;20.70;61.20
41533;DHT22;27262;-35.248;149.138;2023-05-13T08:32:46;20.70;61.20
41533;DHT22;27262;-35.248;149.138;2023-05-13T08:35:16;20.70;62.00
41533;DHT22;27262;-35.248;149.138;2023-05-13T08:37:48;20.70;61.20
41533;DHT22;27262;-35.248;149.138;2023-05-13T08:40:19;20.70;61.20
41533;DHT22;27262;-35.248;149.138;2023-05-13T08:42:50;20.70;61.20
41533;DHT22;27262;-35.248;149.138;2023-05-13T08:45:22;20.70;61.20
41533;DHT22;27262;-35.248;149.138;2023-05-13T08:48:02;20.70;61.20
41533;DHT22;27262;-35.248;149.138;2023-05-13T08:50:33;20.70;61.10
41533;DHT22;27262;-35.248;149.138;2023-05-13T08:53:03;20.70;61.20
41533;DHT22;27262;-35.248;149.138;2023-05-13T08:55:35;20.70;61.20
41533;DHT22;27262;-35.248;149.138;2023-05-13T08:58:07;20.70;61.20
41533;DHT22;27262;-35.248;149.138;2023-05-13T09:00:38;20.70;61.20
41533;DHT22;27262;-35.248;149.138;2023-05-13T09:03:08;20.70;61.20
41533;DHT22;27262;-35.248;149.138;2023-05-13T09:05:40;20.70;61.30
41533;DHT22;27262;-35.248;149.138;2023-05-13T09:08:11;20.70;61.20
41533;DHT22;27262;-35.248;149.138;2023-05-13T09:10:42;20.70;61.20
41533;DHT22;27262;-35.248;149.138;2023-05-13T09:13:13;20.70;61.20
41533;DHT22;27262;-35.248;149.138;2023-05-13T09:15:44;20.70;61.20
41533;DHT22;27262;-35.248;149.138;2023-05-13T09:18:15;20.70;61.20
41533;DHT22;27262;-35.248;149.138;2023-05-13T09:20:46;20.70;61.20
41533;DHT22;27262;-35.248;149.138;2023-05-13T09:23:16;20.70;61.20
41533;DHT22;27262;-35.248;149.138;2023-05-13T09:25:47;20.70;61.10
41533;DHT22;27262;-35.248;149.138;2023-05-13T09:28:18;20.70;61.20
41533;DHT22;27262;-35.248;149.138;2023-05-13T09:30:54;20.70;61.20
41533;DHT22;27262;-35.248;149.138;2023-05-13T09:33:29;20.70;61.20
41533;DHT22;27262;-35.248;149.138;2023-05-13T09:36:03;20.70;61.20
41533;DHT22;27262;-35.248;149.138;2023-05-13T09:38:34;20.70;61.20
41533;DHT22;27262;-35.248;149.138;2023-05-13T09:41:07;20.70;61.30
41533;DHT22;27262;-35.248;149.138;2023-05-13T09:43:39;20.70;61.40
41533;DHT22;27262;-35.248;149.138;2023-05-13T09:46:10;20.70;61.50
41533;DHT22;27262;-35.248;149.138;2023-05-13T09:48:42;20.70;61.60
41533;DHT22;27262;-35.248;149.138;2023-05-13T09:51:14;20.70;61.70
41533;DHT22;27262;-35.248;149.138;2023-05-13T09:53:47;20.70;61.70
41533;DHT22;27262;-35.248;149.138;2023-05-13T09:56:20;20.70;61.70
41533;DHT22;27262;-35.248;149.138;2023-05-13T09:58:52;20.70;61.70
41533;DHT22;27262;-35.248;149.138;2023-05-13T10:01:25;20.70;61.80
41533;DHT22;27262;-35.248;149.138;2023-05-13T10:03:57;20.70;61.80
41533;DHT22;27262;-35.248;149.138;2023-05-13T10:06:30;20.70;61.70
41533;DHT22;27262;-35.248;149.138;2023-05-13T10:09:05;20.70;61.80
41533;DHT22;27262;-35.248;149.138;2023-05-13T10:11:37;20.70;61.80
41533;DHT22;27262;-35.248;149.138;2023-05-13T10:14:08;20.70;61.80
41533;DHT22;27262;-35.248;149.138;2023-05-13T10:16:40;20.70;61.80
41533;DHT22;27262;-35.248;149.138;2023-05-13T10:19:11;20.70;61.80
41533;DHT22;27262;-35.248;149.138;2023-05-13T10:21:42;20.70;61.70
41533;DHT22;27262;-35.248;149.138;2023-05-13T10:24:13;20.70;61.70
41533;DHT22;27262;-35.248;149.138;2023-05-13T10:26:44;20.70;61.70
41533;DHT22;27262;-35.248;149.138;2023-05-13T10:29:15;20.70;61.70
41533;DHT22;27262;-35.248;149.138;2023-05-13T10:31:47;20.70;61.70
41533;DHT22;27262;-35.248;149.138;2023-05-13T10:34:19;20.70;61.70
41533;DHT22;27262;-35.248;149.138;2023-05-13T10:42:42;20.70;61.20
41533;DHT22;27262;-35.248;149.138;2023-05-13T10:45:16;20.70;61.40
41533;DHT22;27262;-35.248;149.138;2023-05-13T10:47:49;20.70;61.20
41533;DHT22;27262;-35.248;149.138;2023-05-13T10:50:24;20.70;61.20
41533;DHT22;27262;-35.248;149.138;2023-05-13T10:52:55;20.70;61.20
41533;DHT22;27262;-35.248;149.138;2023-05-13T10:55:27;20.70;61.20
41533;DHT22;27262;-35.248;149.138;2023-05-13T11:00:43;20.70;61.10
41533;DHT22;27262;-35.248;149.138;2023-05-13T11:08:44;20.70;61.20
41533;DHT22;27262;-35.248;149.138;2023-05-13T11:14:01;20.60;61.20
41533;DHT22;27262;-35.248;149.138;2023-05-13T11:16:36;20.60;61.30
41533;DHT22;27262;-35.248;149.138;2023-05-13T11:19:17;20.60;61.30
41533;DHT22;27262;-35.248;149.138;2023-05-13T11:21:57;20.60;61.30
41533;DHT22;27262;-35.248;149.138;2023-05-13T11:24:28;20.70;61.30
41533;DHT22;27262;-35.248;149.138;2023-05-13T11:26:58;20.60;61.30
41533;DHT22;27262;-35.248;149.138;2023-05-13T11:29:51;20.60;61.30
41533;DHT22;27262;-35.248;149.138;2023-05-13T11:35:25;20.60;61.20
41533;DHT22;27262;-35.248;149.138;2023-05-13T11:37:57;20.60;61.30
41533;DHT22;27262;-35.248;149.138;2023-05-13T11:40:36;20.60;61.30
41533;DHT22;27262;-35.248;149.138;2023-05-13T11:43:07;20.60;61.20
41533;DHT22;27262;-35.248;149.138;2023-05-13T11:45:38;20.60;61.30
41533;DHT22;27262;-35.248;149.138;2023-05-13T11:48:20;20.60;61.30
41533;DHT22;27262;-35.248;149.138;2023-05-13T11:50:51;20.60;61.20
41533;DHT22;27262;-35.248;149.138;2023-05-13T11:53:22;20.60;61.30
41533;DHT22;27262;-35.248;149.138;2023-05-13T11:55:52;20.60;61.40
41533;DHT22;27262;-35.248;149.138;2023-05-13T11:58:23;20.60;61.50
41533;DHT22;27262;-35.248;149.138;2023-05-13T12:00:54;20.50;61.50
41533;DHT22;27262;-35.248;149.138;2023-05-13T12:03:27;20.40;61.60
41533;DHT22;27262;-35.248;149.138;2023-05-13T12:06:04;20.40;61.60
41533;DHT22;27262;-35.248;149.138;2023-05-13T12:08:41;20.40;61.70
41533;DHT22;27262;-35.248;149.138;2023-05-13T12:11:12;20.30;61.70
41533;DHT22;27262;-35.248;149.138;2023-05-13T12:13:43;20.30;61.80
41533;DHT22;27262;-35.248;149.138;2023-05-13T12:16:13;20.40;61.90
41533;DHT22;27262;-35.248;149.138;2023-05-13T12:19:27;20.40;61.80
41533;DHT22;27262;-35.248;149.138;2023-05-13T12:21:50;20.40;61.60
41533;DHT22;27262;-35.248;149.138;2023-05-13T12:24:21;20.30;61.60
41533;DHT22;27262;-35.248;149.138;2023-05-13T12:26:52;20.30;61.80
41533;DHT22;27262;-35.248;149.138;2023-05-13T12:29:40;20.30;61.90
41533;DHT22;27262;-35.248;149.138;2023-05-13T12:32:10;20.30;61.90
41533;DHT22;27262;-35.248;149.138;2023-05-13T12:34:48;20.20;62.00
41533;DHT22;27262;-35.248;149.138;2023-05-13T12:37:23;20.20;62.00
41533;DHT22;27262;-35.248;149.138;2023-05-13T12:40:09;20.10;62.00
41533;DHT22;27262;-35.248;149.138;2023-05-13T12:42:49;20.10;62.00
41533;DHT22;27262;-35.248;149.138;2023-05-13T12:45:19;20.10;62.10
41533;DHT22;27262;-35.248;149.138;2023-05-13T12:47:50;20.00;62.10
41533;DHT22;27262;-35.248;149.138;2023-05-13T12:50:21;20.00;62.10
41533;DHT22;27262;-35.248;149.138;2023-05-13T12:52:52;20.00;62.20
41533;DHT22;27262;-35.248;149.138;2023-05-13T12:55:23;20.00;62.20
41533;DHT22;27262;-35.248;149.138;2023-05-13T12:57:59;20.00;62.20
41533;DHT22;27262;-35.248;149.138;2023-05-13T13:00:30;19.90;62.20
41533;DHT22;27262;-35.248;149.138;2023-05-13T13:03:01;19.90;62.30
41533;DHT22;27262;-35.248;149.138;2023-05-13T13:05:31;19.90;62.30
41533;DHT22;27262;-35.248;149.138;2023-05-13T13:08:02;19.90;62.40
41533;DHT22;27262;-35.248;149.138;2023-05-13T13:10:35;19.90;62.50
41533;DHT22;27262;-35.248;149.138;2023-05-13T13:13:05;19.80;62.40
41533;DHT22;27262;-35.248;149.138;2023-05-13T13:15:36;19.80;62.40
41533;DHT22;27262;-35.248;149.138;2023-05-13T13:18:06;19.80;62.50
41533;DHT22;27262;-35.248;149.138;2023-05-13T13:20:38;19.80;62.50
41533;DHT22;27262;-35.248;149.138;2023-05-13T13:23:08;19.80;62.50
41533;DHT22;27262;-35.248;149.138;2023-05-13T13:25:39;19.70;62.50
41533;DHT22;27262;-35.248;149.138;2023-05-13T13:28:10;19.70;62.50
41533;DHT22;27262;-35.248;149.138;2023-05-13T13:30:40;19.70;62.50
41533;DHT22;27262;-35.248;149.138;2023-05-13T13:33:15;19.70;62.60
41533;DHT22;27262;-35.248;149.138;2023-05-13T13:35:46;19.70;62.60
41533;DHT22;27262;-35.248;149.138;2023-05-13T13:38:16;19.70;62.70
41533;DHT22;27262;-35.248;149.138;2023-05-13T13:40:50;19.60;62.70
41533;DHT22;27262;-35.248;149.138;2023-05-13T13:43:20;19.60;63.50
41533;DHT22;27262;-35.248;149.138;2023-05-13T13:45:50;19.60;62.70
41533;DHT22;27262;-35.248;149.138;2023-05-13T13:48:21;19.60;62.80
41533;DHT22;27262;-35.248;149.138;2023-05-13T13:50:51;19.50;62.70
41533;DHT22;27262;-35.248;149.138;2023-05-13T13:53:22;19.50;62.80
41533;DHT22;27262;-35.248;149.138;2023-05-13T13:55:53;19.50;62.80
41533;DHT22;27262;-35.248;149.138;2023-05-13T13:58:23;19.50;62.80
41533;DHT22;27262;-35.248;149.138;2023-05-13T14:00:53;19.50;62.90
41533;DHT22;27262;-35.248;149.138;2023-05-13T14:03:24;19.40;62.90
41533;DHT22;27262;-35.248;149.138;2023-05-13T14:05:54;19.40;62.90
41533;DHT22;27262;-35.248;149.138;2023-05-13T14:08:27;19.40;63.00
41533;DHT22;27262;-35.248;149.138;2023-05-13T14:10:58;19.40;62.90
41533;DHT22;27262;-35.248;149.138;2023-05-13T14:13:28;19.40;63.00
41533;DHT22;27262;-35.248;149.138;2023-05-13T14:15:58;19.40;63.00
41533;DHT22;27262;-35.248;149.138;2023-05-13T14:18:37;19.30;63.00
41533;DHT22;27262;-35.248;149.138;2023-05-13T14:21:08;19.30;63.00
41533;DHT22;27262;-35.248;149.138;2023-05-13T14:23:38;19.30;63.10
41533;DHT22;27262;-35.248;149.138;2023-05-13T14:26:10;19.30;63.10
41533;DHT22;27262;-35.248;149.138;2023-05-13T14:28:43;19.30;63.10
41533;DHT22;27262;-35.248;149.138;2023-05-13T14:31:13;19.30;63.10
41533;DHT22;27262;-35.248;149.138;2023-05-13T14:33:44;19.30;63.10
41533;DHT22;27262;-35.248;149.138;2023-05-13T14:36:14;19.30;63.20
41533;DHT22;27262;-35.248;149.138;2023-05-13T14:38:44;19.20;63.20
41533;DHT22;27262;-35.248;149.138;2023-05-13T14:41:15;19.20;63.20
41533;DHT22;27262;-35.248;149.138;2023-05-13T14:43:48;19.20;63.20
41533;DHT22;27262;-35.248;149.138;2023-05-13T14:46:18;19.20;63.20
41533;DHT22;27262;-35.248;149.138;2023-05-13T14:48:49;19.10;63.20
41533;DHT22;27262;-35.248;149.138;2023-05-13T14:51:19;19.10;63.20
41533;DHT22;27262;-35.248;149.138;2023-05-13T14:53:49;19.10;63.30
41533;DHT22;27262;-35.248;149.138;2023-05-13T14:56:20;19.10;63.30
41533;DHT22;27262;-35.248;149.138;2023-05-13T14:58:51;19.10;63.30
41533;DHT22;27262;-35.248;149.138;2023-05-13T15:01:22;19.10;63.30
41533;DHT22;27262;-35.248;149.138;2023-05-13T15:03:52;19.10;63.30
41533;DHT22;27262;-35.248;149.138;2023-05-13T15:06:23;19.10;63.30
41533;DHT22;27262;-35.248;149.138;2023-05-13T15:08:53;19.10;63.40
41533;DHT22;27262;-35.248;149.138;2023-05-13T15:11:26;19.00;63.30
41533;DHT22;27262;-35.248;149.138;2023-05-13T15:14:01;19.00;63.30
41533;DHT22;27262;-35.248;149.138;2023-05-13T15:16:32;19.00;63.40
41533;DHT22;27262;-35.248;149.138;2023-05-13T15:19:02;19.00;63.40
41533;DHT22;27262;-35.248;149.138;2023-05-13T15:21:32;19.00;63.40
41533;DHT22;27262;-35.248;149.138;2023-05-13T15:24:03;19.00;63.50
41533;DHT22;27262;-35.248;149.138;2023-05-13T15:26:33;19.00;63.50
41533;DHT22;27262;-35.248;149.138;2023-05-13T15:29:03;19.00;63.50
41533;DHT22;27262;-35.248;149.138;2023-05-13T15:31:34;18.90;63.50
41533;DHT22;27262;-35.248;149.138;2023-05-13T15:34:04;18.90;63.50
41533;DHT22;27262;-35.248;149.138;2023-05-13T15:36:35;18.90;63.60
41533;DHT22;27262;-35.248;149.138;2023-05-13T15:39:05;18.90;63.60
41533;DHT22;27262;-35.248;149.138;2023-05-13T15:41:36;18.90;63.70